Aérodrome :
LOGIN :

S'inscrire | Disclaimer

   EN    FR    IT 

 










Légende :    VFR   VFR Marginal   IFR   IFR Intensif   IFR Très Intensif
Visi : 
Plafond : 
>= 8 km
>= 3000ft
5 à 8 km
1000 à 3000 ft
1500m à 5 km
500 à 1000 ft
800 à 1500m
200 à 500 ft
< 800m
< 200 ft
Symboles :   Orages  Brouillard  Fortes neiges  Fortes précipitations  Vent > 20 kt
SIGMETs :   Divers  Orages  Givrage  Turbulence  Onde Orograph.  Cendres Volcan.







- Altitude de l'aérodrome : 2026 ft
- Code IATA : TOJ


LETO - Madrid Torrejon

DERNIER METAR :
  • 201900Z 36011KT CAVOK 06/01 Q1016 NOSIG

METARs EXPIRÉS :
  • 201800Z 34008KT 9999 FEW068 06/01 Q1016 NOSIG
  • 201700Z 02009KT 9999 FEW068 08/02 Q1015 NOSIG

TAF TAF LETO
Valide du 20 à 18h jusqu'au 21 à 18h UTC


201700Z 2018/2118 36008KT CAVOK TX10/2114Z TNM00/2108Z
BECMG 2111/2113 36015KT
PROB40
TEMPO 2112/2116 36015G26KT
Pas de NOTAMs connus pour ce terrain.
1 SIGMET publié pour la FIR Madrid (LECM) :
 
Onde orographique forte
LECM SIGMET 2 VALID 201613/202000 LEVA
LECM MADRID FIR/UIR SEV MTW OBS AT 1613Z WI N3704 W00503 - N3632 W00430 - N3716 W00142 - N3838 W00240 - N3704 W00503 SFC/FL260 STNR NC=



MET'MAP, la Météo Aéronautique d'un coup d'oeil ! - Copyright ORBIFLY Décembre 2007 - Disclaimer

ORBIFLY MET'MAP TEAM :

Programmation & Développement : Alexandra Zaïnal
Conception & Développement : Baudouin d'Aumeries
Co-Programmation & Développement : Marc-Olivier Méhu
Soutien technique & logistique : Manuel Goepfert

Contact : metmap@orbifly.com




SOURCES & CREDITS :

   NOAA